Lizard Point — 3ECO5 — position and weather

sailwx.info

Track history (hours):
 
Tides and Currents Weather Stations Pressure Air Temp Water Temp Dewpoint Dewpoint Depression Visibility Wind Speed Wind Dir Waves Ship Positions

Lizard Point

Last reported at 2018-Jun-21 00:28 UTC. Time now 2018-Jun-21 00:54 UTC.
Position N 46°46' E 031°57'.

Length 168 m; draft 9.7 m.

Type: Ship. MMSI: 371415000.

Date/timePositionNaut miles runAvg speedWind from/ knotsBaromVisibWave heightAir tempDewpointWater temp
2018-Jun-21 00:28N 46°46' E 031°57'0 0.0
2018-Jun-20 23:58N 46°46' E 031°57'0 0.0
2018-Jun-20 23:28N 46°46' E 031°57'0 0.0
2018-Jun-20 22:58N 46°46' E 031°57'0 0.0
2018-Jun-20 22:28N 46°46' E 031°57'0 0.0
2018-Jun-20 21:55N 46°46' E 031°57'0 0.0
2018-Jun-20 21:28N 46°46' E 031°57'0 0.0
2018-Jun-20 20:58N 46°46' E 031°57'0 0.0
2018-Jun-20 20:28N 46°46' E 031°57'0 0.0
2018-Jun-20 19:58N 46°46' E 031°57'0 0.0
2018-Jun-20 19:28N 46°46' E 031°57'0 0.0
2018-Jun-20 18:58N 46°46' E 031°57'0 0.0
2018-Jun-20 18:28N 46°46' E 031°57'0 0.0
2018-Jun-20 17:58N 46°46' E 031°57'0 0.0
2018-Jun-20 17:28N 46°46' E 031°57'0 0.0
2018-Jun-20 16:58N 46°46' E 031°57'0 0.0
2018-Jun-20 16:28N 46°46' E 031°57'0 0.0
2018-Jun-20 15:58N 46°46' E 031°57'0 0.0
2018-Jun-20 14:46N 46°46' E 031°57'0 0.0
2018-Jun-20 14:28N 46°46' E 031°57'0 0.0
2018-Jun-20 13:58N 46°46' E 031°57'0 0.0
2018-Jun-20 13:25N 46°46' E 031°57'0 0.0
2018-Jun-20 12:58N 46°46' E 031°57'0 0.0
2018-Jun-20 12:28N 46°46' E 031°57'0 0.0
2018-Jun-20 11:58N 46°46' E 031°57'0 0.0
2018-Jun-20 11:28N 46°46' E 031°57'0 0.0
2018-Jun-20 10:58N 46°46' E 031°57'0 0.0
2018-Jun-20 10:28N 46°46' E 031°57'0 0.0
2018-Jun-20 09:58N 46°46' E 031°57'0 0.0
2018-Jun-20 09:28N 46°46' E 031°57'0 0.0
2018-Jun-20 08:58N 46°46' E 031°57'0 0.0
2018-Jun-20 08:28N 46°46' E 031°57'0 0.0
2018-Jun-20 07:59N 46°46' E 031°57'0 0.3
2018-Jun-20 07:30N 46°46' E 031°57'1 2.3
2018-Jun-20 07:00N 46°45' E 031°56'2 3.4
2018-Jun-20 06:30N 46°44' E 031°56'3 5.5
2018-Jun-20 06:00N 46°41' E 031°56'4 7.9
2018-Jun-20 05:30N 46°37' E 031°53'4 8.8
2018-Jun-20 05:00N 46°36' E 031°47'4 8.9
2018-Jun-20 04:30N 46°36' E 031°41'4 8.4
2018-Jun-20 04:00N 46°35' E 031°35'4 7.1
2018-Jun-20 03:30N 46°36' E 031°30'4 8.3
2018-Jun-20 03:00N 46°34' E 031°24'5 9.3
2018-Jun-20 02:29N 46°35' E 031°17'4 9.4
2018-Jun-20 02:00N 46°35' E 031°10'5 9.2
2018-Jun-20 01:30N 46°34' E 031°04'4 8.0
2018-Jun-20 01:00N 46°33' E 030°59'4 8.5
2018-Jun-20 00:30N 46°28' E 030°57'4 8.1
2018-Jun-20 00:00N 46°24' E 030°57'4 8.0
2018-Jun-19 23:30N 46°20' E 030°57'4 7.9
2018-Jun-19 23:00N 46°17' E 030°59'4 8.2
2018-Jun-19 22:27N 46°13' E 031°03'4 7.9
2018-Jun-19 22:00N 46°10' E 031°06'2 4.1
2018-Jun-19 21:30N 46°09' E 031°08'19 9.7
2018-Jun-19 19:32N 45°50' E 030°60'4411.4
2018-Jun-19 15:42N 45°08' E 030°44'211.6
2018-Jun-19 15:29N 45°06' E 030°43'511.6
2018-Jun-19 15:00N 45°00' E 030°42'611.6
2018-Jun-19 14:30N 44°54' E 030°41'611.6
2018-Jun-19 14:00N 44°49' E 030°40'611.7
2018-Jun-19 13:31N 44°43' E 030°39'611.6
2018-Jun-19 13:00N 44°37' E 030°38'611.6
2018-Jun-19 12:30N 44°31' E 030°37'611.7
2018-Jun-19 12:01N 44°26' E 030°36'611.7
2018-Jun-19 11:30N 44°20' E 030°35'611.7
2018-Jun-19 11:00N 44°14' E 030°33'611.8
2018-Jun-19 10:30N 44°09' E 030°30'611.7
2018-Jun-19 10:01N 44°03' E 030°27'611.6
2018-Jun-19 09:31N 43°58' E 030°25'611.5
2018-Jun-19 09:00N 43°52' E 030°22'611.3
2018-Jun-19 08:30N 43°47' E 030°20'611.2
2018-Jun-19 07:57N 43°41' E 030°17'511.1
2018-Jun-19 07:30N 43°36' E 030°15'611.6
2018-Jun-19 07:00N 43°31' E 030°12'510.8
2018-Jun-19 06:30N 43°26' E 030°10'611.3
2018-Jun-19 06:00N 43°20' E 030°07'911.3
2018-Jun-19 05:13N 43°12' E 030°03'311.3
2018-Jun-19 04:57N 43°09' E 030°02'511.3
2018-Jun-19 04:31N 43°04' E 029°60'611.1
2018-Jun-19 04:00N 42°59' E 029°57'611.1
2018-Jun-19 03:30N 42°54' E 029°55'611.2
2018-Jun-19 03:01N 42°48' E 029°53'611.2
2018-Jun-19 02:31N 42°43' E 029°50'611.3
2018-Jun-19 02:00N 42°38' E 029°48'611.3
2018-Jun-19 01:31N 42°32' E 029°45'611.3
2018-Jun-19 01:01N 42°27' E 029°43'611.3
2018-Jun-19 00:31N 42°22' E 029°41'611.4
2018-Jun-19 00:00N 42°16' E 029°38'376 8.3
2018-Jun-17 02:49N 37°35' E 024°12'  
2018-Jun-12 20:13N 36°48' E 001°18'1312.6
2018-Jun-12 19:13N 36°47' E 001°02'712.4
2018-Jun-12 18:39N 36°46' E 000°53'312.4
2018-Jun-12 18:25N 36°45' E 000°50'612.2
2018-Jun-12 17:57N 36°45' E 000°43'612.0
2018-Jun-12 17:29N 36°44' E 000°36'611.8
2018-Jun-12 17:00N 36°43' E 000°29'611.6
2018-Jun-12 16:29N 36°42' E 000°21'811.7
2018-Jun-12 15:47N 36°41' E 000°11'411.6
2018-Jun-12 15:29N 36°40' E 000°07'25712.2
2018-Jun-11 18:24N 36°01' W 005°08'614.1
2018-Jun-11 18:00N 36°03' W 005°15'611.1
2018-Jun-11 17:30N 36°05' W 005°21'2 3.0
2018-Jun-11 17:00N 36°07' W 005°21'0 0.1
2018-Jun-11 15:54N 36°07' W 005°21'0 0.0
2018-Jun-11 15:30N 36°07' W 005°21'7 0.9
2018-Jun-11 07:04N 36°06' W 005°12'2 8.9
2018-Jun-11 06:47N 36°06' W 005°09'3 4.2
2018-Jun-11 05:58N 36°06' W 005°05'0 0.9
2018-Jun-11 05:30N 36°06' W 005°06'1 1.0
2018-Jun-11 05:00N 36°06' W 005°06'1 1.2
2018-Jun-11 04:30N 36°06' W 005°07'1 1.1
2018-Jun-11 03:59N 36°06' W 005°08'1 2.3
2018-Jun-11 03:30N 36°06' W 005°06'1 1.4
2018-Jun-11 02:56N 36°05' W 005°06'1 2.0
2018-Jun-11 02:26N 36°05' W 005°07'1 2.0
2018-Jun-11 02:00N 36°05' W 005°08'1 1.9
2018-Jun-11 01:30N 36°05' W 005°10'1 2.2
2018-Jun-11 01:00N 36°06' W 005°08'3 6.5
2018-Jun-11 00:30N 36°07' W 005°05'  
Track history (hours):
 
Tides and Currents Weather Stations Pressure Air Temp Water Temp Dewpoint Dewpoint Depression Visibility Wind Speed Wind Dir Waves Ship Positions

Lizard Point

Last reported at 2018-Jun-21 00:28 UTC. Time now 2018-Jun-21 00:54 UTC.
Position N 46°46' E 031°57'.

Length 168 m; draft 9.7 m.

Type: Ship. MMSI: 371415000.

Date/timePositionNaut miles runAvg speedWind from/ knotsBaromVisibWave heightAir tempDewpointWater temp
2018-Jun-21 00:28N 46°46' E 031°57'0 0.0
2018-Jun-20 23:58N 46°46' E 031°57'0 0.0
2018-Jun-20 23:28N 46°46' E 031°57'0 0.0
2018-Jun-20 22:58N 46°46' E 031°57'0 0.0
2018-Jun-20 22:28N 46°46' E 031°57'0 0.0
2018-Jun-20 21:55N 46°46' E 031°57'0 0.0
2018-Jun-20 21:28N 46°46' E 031°57'0 0.0
2018-Jun-20 20:58N 46°46' E 031°57'0 0.0
2018-Jun-20 20:28N 46°46' E 031°57'0 0.0
2018-Jun-20 19:58N 46°46' E 031°57'0 0.0
2018-Jun-20 19:28N 46°46' E 031°57'0 0.0
2018-Jun-20 18:58N 46°46' E 031°57'0 0.0
2018-Jun-20 18:28N 46°46' E 031°57'0 0.0
2018-Jun-20 17:58N 46°46' E 031°57'0 0.0
2018-Jun-20 17:28N 46°46' E 031°57'0 0.0
2018-Jun-20 16:58N 46°46' E 031°57'0 0.0
2018-Jun-20 16:28N 46°46' E 031°57'0 0.0
2018-Jun-20 15:58N 46°46' E 031°57'0 0.0
2018-Jun-20 14:46N 46°46' E 031°57'0 0.0
2018-Jun-20 14:28N 46°46' E 031°57'0 0.0
2018-Jun-20 13:58N 46°46' E 031°57'0 0.0
2018-Jun-20 13:25N 46°46' E 031°57'0 0.0
2018-Jun-20 12:58N 46°46' E 031°57'0 0.0
2018-Jun-20 12:28N 46°46' E 031°57'0 0.0
2018-Jun-20 11:58N 46°46' E 031°57'0 0.0
2018-Jun-20 11:28N 46°46' E 031°57'0 0.0
2018-Jun-20 10:58N 46°46' E 031°57'0 0.0
2018-Jun-20 10:28N 46°46' E 031°57'0 0.0
2018-Jun-20 09:58N 46°46' E 031°57'0 0.0
2018-Jun-20 09:28N 46°46' E 031°57'0 0.0
2018-Jun-20 08:58N 46°46' E 031°57'0 0.0
2018-Jun-20 08:28N 46°46' E 031°57'0 0.0
2018-Jun-20 07:59N 46°46' E 031°57'0 0.3
2018-Jun-20 07:30N 46°46' E 031°57'1 2.3
2018-Jun-20 07:00N 46°45' E 031°56'2 3.4
2018-Jun-20 06:30N 46°44' E 031°56'3 5.5
2018-Jun-20 06:00N 46°41' E 031°56'4 7.9
2018-Jun-20 05:30N 46°37' E 031°53'4 8.8
2018-Jun-20 05:00N 46°36' E 031°47'4 8.9
2018-Jun-20 04:30N 46°36' E 031°41'4 8.4
2018-Jun-20 04:00N 46°35' E 031°35'4 7.1
2018-Jun-20 03:30N 46°36' E 031°30'4 8.3
2018-Jun-20 03:00N 46°34' E 031°24'5 9.3
2018-Jun-20 02:29N 46°35' E 031°17'4 9.4
2018-Jun-20 02:00N 46°35' E 031°10'5 9.2
2018-Jun-20 01:30N 46°34' E 031°04'4 8.0
2018-Jun-20 01:00N 46°33' E 030°59'4 8.5
2018-Jun-20 00:30N 46°28' E 030°57'4 8.1
2018-Jun-20 00:00N 46°24' E 030°57'4 8.0
2018-Jun-19 23:30N 46°20' E 030°57'4 7.9
2018-Jun-19 23:00N 46°17' E 030°59'4 8.2
2018-Jun-19 22:27N 46°13' E 031°03'4 7.9
2018-Jun-19 22:00N 46°10' E 031°06'2 4.1
2018-Jun-19 21:30N 46°09' E 031°08'19 9.7
2018-Jun-19 19:32N 45°50' E 030°60'4411.4
2018-Jun-19 15:42N 45°08' E 030°44'211.6
2018-Jun-19 15:29N 45°06' E 030°43'511.6
2018-Jun-19 15:00N 45°00' E 030°42'611.6
2018-Jun-19 14:30N 44°54' E 030°41'611.6
2018-Jun-19 14:00N 44°49' E 030°40'611.7
2018-Jun-19 13:31N 44°43' E 030°39'611.6
2018-Jun-19 13:00N 44°37' E 030°38'611.6
2018-Jun-19 12:30N 44°31' E 030°37'611.7
2018-Jun-19 12:01N 44°26' E 030°36'611.7
2018-Jun-19 11:30N 44°20' E 030°35'611.7
2018-Jun-19 11:00N 44°14' E 030°33'611.8
2018-Jun-19 10:30N 44°09' E 030°30'611.7
2018-Jun-19 10:01N 44°03' E 030°27'611.6
2018-Jun-19 09:31N 43°58' E 030°25'611.5
2018-Jun-19 09:00N 43°52' E 030°22'611.3
2018-Jun-19 08:30N 43°47' E 030°20'611.2
2018-Jun-19 07:57N 43°41' E 030°17'511.1
2018-Jun-19 07:30N 43°36' E 030°15'611.6
2018-Jun-19 07:00N 43°31' E 030°12'510.8
2018-Jun-19 06:30N 43°26' E 030°10'611.3
2018-Jun-19 06:00N 43°20' E 030°07'911.3
2018-Jun-19 05:13N 43°12' E 030°03'311.3
2018-Jun-19 04:57N 43°09' E 030°02'511.3
2018-Jun-19 04:31N 43°04' E 029°60'611.1
2018-Jun-19 04:00N 42°59' E 029°57'611.1
2018-Jun-19 03:30N 42°54' E 029°55'611.2
2018-Jun-19 03:01N 42°48' E 029°53'611.2
2018-Jun-19 02:31N 42°43' E 029°50'611.3
2018-Jun-19 02:00N 42°38' E 029°48'611.3
2018-Jun-19 01:31N 42°32' E 029°45'611.3
2018-Jun-19 01:01N 42°27' E 029°43'611.3
2018-Jun-19 00:31N 42°22' E 029°41'611.4
2018-Jun-19 00:00N 42°16' E 029°38'376 8.3
2018-Jun-17 02:49N 37°35' E 024°12'  
2018-Jun-12 20:13N 36°48' E 001°18'1312.6
2018-Jun-12 19:13N 36°47' E 001°02'712.4
2018-Jun-12 18:39N 36°46' E 000°53'312.4
2018-Jun-12 18:25N 36°45' E 000°50'612.2
2018-Jun-12 17:57N 36°45' E 000°43'612.0
2018-Jun-12 17:29N 36°44' E 000°36'611.8
2018-Jun-12 17:00N 36°43' E 000°29'611.6
2018-Jun-12 16:29N 36°42' E 000°21'811.7
2018-Jun-12 15:47N 36°41' E 000°11'411.6
2018-Jun-12 15:29N 36°40' E 000°07'25712.2
2018-Jun-11 18:24N 36°01' W 005°08'614.1
2018-Jun-11 18:00N 36°03' W 005°15'611.1
2018-Jun-11 17:30N 36°05' W 005°21'2 3.0
2018-Jun-11 17:00N 36°07' W 005°21'0 0.1
2018-Jun-11 15:54N 36°07' W 005°21'0 0.0
2018-Jun-11 15:30N 36°07' W 005°21'7 0.9
2018-Jun-11 07:04N 36°06' W 005°12'2 8.9
2018-Jun-11 06:47N 36°06' W 005°09'3 4.2
2018-Jun-11 05:58N 36°06' W 005°05'0 0.9
2018-Jun-11 05:30N 36°06' W 005°06'1 1.0
2018-Jun-11 05:00N 36°06' W 005°06'1 1.2
2018-Jun-11 04:30N 36°06' W 005°07'1 1.1
2018-Jun-11 03:59N 36°06' W 005°08'1 2.3
2018-Jun-11 03:30N 36°06' W 005°06'1 1.4
2018-Jun-11 02:56N 36°05' W 005°06'1 2.0
2018-Jun-11 02:26N 36°05' W 005°07'1 2.0
2018-Jun-11 02:00N 36°05' W 005°08'1 1.9
2018-Jun-11 01:30N 36°05' W 005°10'1 2.2
2018-Jun-11 01:00N 36°06' W 005°08'3 6.5
2018-Jun-11 00:30N 36°07' W 005°05'  

Dump ship's entire track history